createdAt,value
2023-03-08T00:01:22.554Z,6.20
2023-03-08T00:03:53.693Z,5.65
2023-03-08T00:06:20.875Z,6.10
2023-03-08T00:08:48.377Z,5.95
2023-03-08T00:11:15.790Z,5.53
2023-03-08T00:13:42.199Z,6.18
2023-03-08T00:16:11.364Z,6.00
2023-03-08T00:18:37.930Z,6.45
2023-03-08T00:21:08.057Z,6.40
2023-03-08T00:23:34.492Z,6.38
2023-03-08T00:26:00.933Z,5.57
2023-03-08T00:28:27.415Z,6.28
2023-03-08T00:31:11.055Z,5.50
2023-03-08T00:33:38.176Z,5.88
2023-03-08T00:36:17.472Z,5.97
2023-03-08T00:38:44.536Z,6.25
2023-03-08T00:41:13.935Z,5.97
2023-03-08T00:43:42.211Z,6.10
2023-03-08T00:46:09.028Z,6.40
2023-03-08T00:48:35.461Z,8.57
2023-03-08T00:51:01.921Z,6.43
2023-03-08T00:53:30.187Z,7.25
2023-03-08T00:55:58.595Z,6.53
2023-03-08T00:58:27.428Z,6.75
2023-03-08T01:00:54.647Z,6.70
2023-03-08T01:03:22.776Z,6.55
2023-03-08T01:05:51.969Z,6.40
2023-03-08T01:08:19.760Z,6.57
2023-03-08T01:10:48.320Z,6.68
2023-03-08T01:13:16.086Z,6.80
2023-03-08T01:15:43.846Z,6.07
2023-03-08T01:18:10.611Z,7.20
2023-03-08T01:20:37.160Z,6.45
2023-03-08T01:23:03.911Z,6.30
2023-03-08T01:25:30.541Z,6.85
2023-03-08T01:27:57.052Z,6.40
2023-03-08T01:30:23.594Z,6.97
2023-03-08T01:32:49.992Z,7.43
2023-03-08T01:35:16.523Z,7.47
2023-03-08T01:37:42.917Z,6.95
2023-03-08T01:40:16.594Z,7.13
2023-03-08T01:42:42.964Z,7.18
2023-03-08T01:45:47.000Z,7.03
2023-03-08T01:48:15.416Z,7.45
2023-03-08T01:51:02.473Z,6.85
2023-03-08T01:53:28.974Z,6.78
2023-03-08T01:55:55.973Z,7.85
2023-03-08T01:58:23.439Z,7.35
2023-03-08T02:00:50.001Z,6.43
2023-03-08T02:03:16.984Z,7.60
2023-03-08T02:05:44.313Z,7.22
2023-03-08T02:08:16.286Z,6.90
2023-03-08T02:10:44.585Z,7.90
2023-03-08T02:13:11.359Z,7.57
2023-03-08T02:15:41.105Z,6.97
2023-03-08T02:18:07.587Z,6.70
2023-03-08T02:20:40.146Z,7.78
2023-03-08T02:23:18.958Z,7.38
2023-03-08T02:26:05.107Z,7.85
2023-03-08T02:28:32.515Z,7.95
2023-03-08T02:30:59.171Z,8.57
2023-03-08T02:33:26.289Z,8.20
2023-03-08T02:35:53.098Z,8.00
2023-03-08T02:38:21.486Z,8.43
2023-03-08T02:40:51.302Z,7.78
2023-03-08T02:43:18.760Z,8.25
2023-03-08T02:45:45.813Z,8.80
2023-03-08T02:48:13.397Z,7.95
2023-03-08T02:50:40.239Z,8.18
2023-03-08T02:53:07.756Z,8.27
2023-03-08T02:55:36.813Z,7.80
2023-03-08T02:58:09.863Z,7.95
2023-03-08T03:00:37.330Z,7.43
2023-03-08T03:03:03.993Z,8.15
2023-03-08T03:05:30.418Z,8.38
2023-03-08T03:07:59.065Z,9.25
2023-03-08T03:10:27.767Z,8.48
2023-03-08T03:12:55.074Z,8.40
2023-03-08T03:15:25.133Z,8.18
2023-03-08T03:17:56.703Z,8.32
2023-03-08T03:20:23.328Z,8.20
2023-03-08T03:22:49.728Z,9.27
2023-03-08T03:25:18.356Z,9.18
2023-03-08T03:27:46.315Z,8.30
2023-03-08T03:30:13.277Z,9.30
2023-03-08T03:32:40.352Z,9.05
2023-03-08T03:35:07.495Z,9.85
2023-03-08T03:37:35.459Z,9.07
2023-03-08T03:40:03.384Z,8.95
2023-03-08T03:42:29.995Z,9.40
2023-03-08T03:45:08.028Z,10.18
2023-03-08T03:47:35.458Z,9.60
2023-03-08T03:50:05.156Z,10.25
2023-03-08T03:52:41.847Z,9.68
2023-03-08T03:55:09.179Z,8.80
2023-03-08T03:57:36.210Z,11.00
2023-03-08T04:00:04.758Z,10.10
2023-03-08T04:02:40.510Z,11.10
2023-03-08T04:05:08.968Z,8.75
2023-03-08T04:07:36.942Z,9.80
2023-03-08T04:10:03.860Z,10.93
2023-03-08T04:12:31.569Z,10.10
2023-03-08T04:14:58.017Z,9.70
2023-03-08T04:17:28.564Z,9.52
2023-03-08T04:19:55.840Z,11.73
2023-03-08T04:22:22.327Z,13.10
2023-03-08T04:24:52.864Z,10.90
2023-03-08T04:27:25.087Z,8.52
2023-03-08T04:29:52.662Z,10.68
2023-03-08T04:32:19.436Z,11.38
2023-03-08T04:34:50.693Z,10.70
2023-03-08T04:37:20.429Z,11.13
2023-03-08T04:39:51.712Z,11.93
2023-03-08T04:42:18.133Z,10.98
2023-03-08T04:44:45.844Z,11.55
2023-03-08T04:47:14.878Z,12.60
2023-03-08T04:49:45.503Z,11.98
2023-03-08T04:52:12.643Z,11.68
2023-03-08T04:54:40.339Z,12.02
2023-03-08T04:57:20.989Z,13.15
2023-03-08T04:59:48.601Z,13.75
2023-03-08T05:02:15.067Z,14.45
2023-03-08T05:04:41.973Z,13.63
2023-03-08T05:07:08.366Z,16.10
2023-03-08T05:09:36.336Z,15.90
2023-03-08T05:12:02.971Z,15.35
2023-03-08T05:14:52.676Z,14.93
2023-03-08T05:17:20.385Z,14.75
2023-03-08T05:19:46.784Z,15.30
2023-03-08T05:22:17.601Z,13.93
2023-03-08T05:24:48.918Z,15.52
2023-03-08T05:27:16.729Z,15.70
2023-03-08T05:29:44.821Z,14.60
2023-03-08T05:32:12.451Z,14.13
2023-03-08T05:34:39.985Z,14.23
2023-03-08T05:37:09.437Z,14.45
2023-03-08T05:39:37.700Z,12.85
2023-03-08T05:42:12.929Z,15.30
2023-03-08T05:44:42.535Z,15.68
2023-03-08T05:47:11.203Z,16.50
2023-03-08T05:49:38.036Z,15.13
2023-03-08T05:52:05.897Z,15.63
2023-03-08T05:54:33.613Z,14.77
2023-03-08T05:57:03.725Z,15.90
2023-03-08T05:59:31.069Z,14.27
2023-03-08T06:02:01.303Z,14.27
2023-03-08T06:04:44.149Z,15.45
2023-03-08T06:07:12.298Z,14.65
2023-03-08T06:09:43.245Z,15.85
2023-03-08T06:12:13.985Z,15.88
2023-03-08T06:14:40.357Z,14.85
2023-03-08T06:17:07.400Z,16.17
2023-03-08T06:19:37.412Z,14.88
2023-03-08T06:22:03.832Z,14.73
2023-03-08T06:24:31.057Z,13.95
2023-03-08T06:26:59.817Z,14.13
2023-03-08T06:29:26.388Z,15.88
2023-03-08T06:31:53.540Z,14.45
2023-03-08T06:34:21.753Z,15.15
2023-03-08T06:36:51.895Z,15.63
2023-03-08T06:39:18.761Z,14.48
2023-03-08T06:41:45.262Z,15.30
2023-03-08T06:44:12.911Z,14.55
2023-03-08T06:46:39.288Z,15.43
2023-03-08T06:49:07.635Z,15.38
2023-03-08T06:51:34.996Z,16.30
2023-03-08T06:54:01.656Z,15.25
2023-03-08T06:56:29.148Z,14.93
2023-03-08T06:58:55.668Z,15.63
2023-03-08T07:01:22.216Z,14.55
2023-03-08T07:03:48.971Z,15.00
2023-03-08T07:06:15.605Z,14.60
2023-03-08T07:08:42.742Z,14.55
2023-03-08T07:11:09.820Z,14.77
2023-03-08T07:13:37.189Z,16.45
2023-03-08T07:16:09.219Z,14.68
2023-03-08T07:18:35.762Z,15.07
2023-03-08T07:21:02.130Z,14.55
2023-03-08T07:23:28.537Z,14.65
2023-03-08T07:25:55.008Z,14.88
2023-03-08T07:28:22.356Z,16.40
2023-03-08T07:30:51.063Z,14.23
2023-03-08T07:33:19.679Z,14.70
2023-03-08T07:35:46.297Z,15.65
2023-03-08T07:38:13.433Z,15.93
2023-03-08T07:40:39.833Z,15.57
2023-03-08T07:43:06.779Z,15.98
2023-03-08T07:45:47.969Z,15.48
2023-03-08T07:48:14.796Z,15.98
2023-03-08T07:50:41.296Z,16.38
2023-03-08T07:53:08.045Z,16.23
2023-03-08T07:55:34.752Z,16.50
2023-03-08T07:58:01.176Z,18.65
2023-03-08T08:00:27.719Z,16.92
2023-03-08T08:02:54.384Z,16.67
2023-03-08T08:05:26.747Z,16.15
2023-03-08T08:07:53.169Z,15.75
2023-03-08T08:10:19.525Z,18.60
2023-03-08T08:12:45.963Z,15.88
2023-03-08T08:15:12.437Z,17.35
2023-03-08T08:17:38.868Z,17.48
2023-03-08T08:20:07.995Z,18.55
2023-03-08T08:22:36.454Z,16.40
2023-03-08T08:25:05.573Z,20.02
2023-03-08T08:27:32.015Z,19.67
2023-03-08T08:29:59.299Z,19.17
2023-03-08T08:32:26.712Z,18.33
2023-03-08T08:34:53.149Z,18.70
2023-03-08T08:37:19.614Z,18.35
2023-03-08T08:39:45.970Z,18.15
2023-03-08T08:42:12.388Z,17.40
2023-03-08T08:44:38.791Z,16.48
2023-03-08T08:47:05.164Z,17.05
2023-03-08T08:49:31.578Z,17.27
2023-03-08T08:51:57.999Z,17.02
2023-03-08T08:54:24.457Z,16.30
2023-03-08T08:56:50.862Z,16.00
2023-03-08T08:59:17.243Z,17.90
2023-03-08T09:01:44.018Z,16.65
2023-03-08T09:04:13.223Z,16.70
2023-03-08T09:06:40.121Z,15.63
2023-03-08T09:09:06.833Z,19.90
2023-03-08T09:11:37.745Z,17.95
2023-03-08T09:14:08.906Z,17.40
2023-03-08T09:16:35.382Z,15.50
2023-03-08T09:19:03.860Z,18.00
2023-03-08T09:21:31.893Z,17.30
2023-03-08T09:24:04.209Z,17.40
2023-03-08T09:26:31.938Z,15.52
2023-03-08T09:29:04.633Z,16.88
2023-03-08T09:31:32.868Z,16.63
2023-03-08T09:34:00.206Z,17.40
2023-03-08T09:36:28.533Z,18.40
2023-03-08T09:38:55.952Z,18.67
2023-03-08T09:41:43.157Z,17.77
2023-03-08T09:44:09.479Z,18.45
2023-03-08T09:47:01.868Z,19.50
2023-03-08T09:49:31.205Z,13.43
2023-03-08T09:52:07.218Z,18.55
2023-03-08T09:54:38.126Z,19.50
2023-03-08T09:57:11.724Z,19.15
2023-03-08T10:00:00.059Z,18.75
2023-03-08T10:02:40.614Z,18.85
2023-03-08T10:05:48.024Z,19.75
2023-03-08T10:08:20.256Z,20.40
2023-03-08T10:11:04.197Z,19.55
2023-03-08T10:13:36.345Z,19.58
2023-03-08T10:16:24.311Z,19.77
2023-03-08T10:19:02.432Z,19.85
2023-03-08T10:21:32.644Z,20.35
2023-03-08T10:24:15.468Z,18.70
2023-03-08T10:26:43.627Z,19.92
2023-03-08T10:29:14.040Z,21.17
2023-03-08T10:31:43.516Z,20.00
2023-03-08T10:34:20.539Z,21.85
2023-03-08T10:36:50.564Z,19.55
2023-03-08T10:39:18.033Z,19.02
2023-03-08T10:41:52.427Z,19.65
2023-03-08T10:44:40.262Z,18.75
2023-03-08T10:47:26.927Z,19.13
2023-03-08T10:50:08.507Z,19.75
2023-03-08T10:52:35.134Z,19.00
2023-03-08T10:55:04.453Z,18.42
2023-03-08T10:57:32.268Z,19.10
2023-03-08T11:00:12.152Z,17.65
2023-03-08T11:02:38.568Z,18.35
2023-03-08T11:05:18.951Z,18.98
2023-03-08T11:07:57.585Z,17.90
2023-03-08T11:10:29.436Z,18.20
2023-03-08T11:13:13.342Z,17.58
2023-03-08T11:15:43.900Z,17.77
2023-03-08T11:18:28.038Z,17.38
2023-03-08T11:21:00.900Z,17.98
2023-03-08T11:23:35.065Z,17.30
2023-03-08T11:26:26.266Z,17.50
2023-03-08T11:29:02.003Z,17.45
2023-03-08T11:31:33.607Z,17.42
2023-03-08T11:34:28.098Z,17.83
2023-03-08T11:37:11.128Z,16.63
2023-03-08T11:39:54.760Z,16.33
2023-03-08T11:42:42.066Z,18.50
2023-03-08T11:45:39.248Z,17.75
2023-03-08T11:48:34.285Z,17.23
2023-03-08T11:51:10.390Z,16.95
2023-03-08T11:53:36.791Z,15.13
2023-03-08T11:56:34.456Z,17.85
2023-03-08T11:59:07.029Z,17.27
2023-03-08T12:01:44.624Z,17.35
2023-03-08T12:04:21.050Z,17.48
2023-03-08T12:06:48.214Z,17.75
2023-03-08T12:09:27.126Z,17.98
2023-03-08T12:12:03.434Z,16.65
2023-03-08T12:14:34.234Z,16.85
2023-03-08T12:17:19.104Z,16.70
2023-03-08T12:19:47.910Z,16.00
2023-03-08T12:22:35.679Z,17.25
2023-03-08T12:25:15.907Z,17.58
2023-03-08T12:27:55.993Z,17.60
2023-03-08T12:30:54.644Z,16.33
2023-03-08T12:33:22.845Z,18.48
2023-03-08T12:35:57.085Z,16.70
2023-03-08T12:38:23.596Z,18.23
2023-03-08T12:40:52.911Z,18.38
2023-03-08T12:43:19.246Z,17.35
2023-03-08T12:46:03.273Z,17.45
2023-03-08T12:48:31.932Z,16.30
2023-03-08T12:51:00.178Z,17.13
2023-03-08T12:53:34.201Z,15.85
2023-03-08T12:56:05.837Z,18.98
2023-03-08T12:58:34.675Z,18.52
2023-03-08T13:01:05.606Z,20.25
2023-03-08T13:03:42.272Z,20.13
2023-03-08T13:06:27.882Z,18.52
2023-03-08T13:09:30.141Z,19.95
2023-03-08T13:12:16.776Z,18.00
2023-03-08T13:15:11.048Z,17.58
2023-03-08T13:17:41.027Z,18.85
2023-03-08T13:20:16.170Z,18.50
2023-03-08T13:23:07.532Z,16.90
2023-03-08T13:25:39.685Z,17.25
2023-03-08T13:28:09.213Z,18.35
2023-03-08T13:30:37.939Z,18.90
2023-03-08T13:33:13.376Z,19.15
2023-03-08T13:35:39.815Z,18.98
2023-03-08T13:38:06.384Z,18.13
2023-03-08T13:40:32.958Z,17.60
2023-03-08T13:43:10.810Z,17.40
2023-03-08T13:45:37.563Z,18.88
2023-03-08T13:48:08.764Z,17.75
2023-03-08T13:50:38.481Z,18.48
2023-03-08T13:53:10.791Z,21.10
2023-03-08T13:55:44.614Z,18.38
2023-03-08T13:58:31.900Z,19.35
2023-03-08T14:01:19.189Z,17.92
2023-03-08T14:03:47.244Z,17.98
2023-03-08T14:06:30.133Z,17.13
2023-03-08T14:09:03.447Z,17.80
2023-03-08T14:11:33.805Z,17.58
2023-03-08T14:14:03.121Z,19.60
2023-03-08T14:16:31.827Z,19.45
2023-03-08T14:19:00.630Z,18.50
2023-03-08T14:21:29.749Z,18.90
2023-03-08T14:23:58.642Z,19.63
2023-03-08T14:26:34.663Z,19.42
2023-03-08T14:29:22.043Z,18.30
2023-03-08T14:31:58.727Z,18.52
2023-03-08T14:34:28.988Z,17.77
2023-03-08T14:36:59.376Z,17.27
2023-03-08T14:39:28.296Z,18.58
2023-03-08T14:41:55.683Z,16.75
2023-03-08T14:44:26.608Z,17.40
2023-03-08T14:46:58.521Z,18.08
2023-03-08T14:49:29.173Z,17.52
2023-03-08T14:51:55.944Z,18.80
2023-03-08T14:54:31.298Z,18.88
2023-03-08T14:56:58.299Z,18.52
2023-03-08T14:59:28.034Z,18.40
2023-03-08T15:01:55.263Z,18.63
2023-03-08T15:04:24.687Z,17.55
2023-03-08T15:06:53.793Z,18.90
2023-03-08T15:09:22.020Z,16.70
2023-03-08T15:11:52.243Z,19.02
2023-03-08T15:14:18.599Z,18.15
2023-03-08T15:16:45.067Z,18.23
2023-03-08T15:19:13.816Z,17.75
2023-03-08T15:21:40.943Z,18.42
2023-03-08T15:24:10.578Z,18.13
2023-03-08T15:26:36.985Z,17.52
2023-03-08T15:29:04.780Z,18.67
2023-03-08T15:31:32.063Z,19.60
2023-03-08T15:33:58.537Z,18.10
2023-03-08T15:36:25.096Z,18.88
2023-03-08T15:38:51.581Z,19.33
2023-03-08T15:41:18.447Z,19.25
2023-03-08T15:43:44.857Z,18.67
2023-03-08T15:46:15.396Z,18.70
2023-03-08T15:48:42.436Z,19.52
2023-03-08T15:51:19.614Z,21.52
2023-03-08T15:53:47.094Z,18.63
2023-03-08T15:56:13.492Z,20.70
2023-03-08T15:58:39.962Z,21.13
2023-03-08T16:01:06.876Z,21.10
2023-03-08T16:03:34.888Z,18.65
2023-03-08T16:06:02.489Z,19.75
2023-03-08T16:08:29.671Z,19.67
2023-03-08T16:10:56.772Z,19.70
2023-03-08T16:13:23.293Z,20.38
2023-03-08T16:15:49.675Z,19.35
2023-03-08T16:18:16.183Z,17.55
2023-03-08T16:20:43.142Z,20.65
2023-03-08T16:23:09.600Z,19.17
2023-03-08T16:25:36.290Z,20.05
2023-03-08T16:28:02.748Z,18.67
2023-03-08T16:30:29.649Z,19.85
2023-03-08T16:32:56.192Z,18.65
2023-03-08T16:35:22.611Z,17.80
2023-03-08T16:37:49.078Z,19.60
2023-03-08T16:40:15.733Z,18.95
2023-03-08T16:42:42.277Z,19.30
2023-03-08T16:45:09.458Z,20.45
2023-03-08T16:47:35.836Z,20.00
2023-03-08T16:50:02.683Z,20.00
2023-03-08T16:52:29.158Z,20.15
2023-03-08T16:54:56.547Z,20.30
2023-03-08T16:57:22.992Z,19.65
2023-03-08T16:59:49.353Z,21.00
2023-03-08T17:02:18.702Z,19.73
2023-03-08T17:04:46.610Z,20.60
2023-03-08T17:07:13.404Z,20.95
2023-03-08T17:09:40.016Z,20.55
2023-03-08T17:12:08.407Z,21.65
2023-03-08T17:14:35.624Z,20.15
2023-03-08T17:17:02.926Z,19.75
2023-03-08T17:19:29.364Z,19.95
2023-03-08T17:21:56.394Z,19.48
2023-03-08T17:24:23.112Z,20.85
2023-03-08T17:26:52.632Z,22.17
2023-03-08T17:29:19.267Z,22.95
2023-03-08T17:31:45.785Z,22.30
2023-03-08T17:34:12.673Z,21.25
2023-03-08T17:36:39.721Z,22.13
2023-03-08T17:39:06.170Z,21.98
2023-03-08T17:41:32.712Z,33.80
2023-03-08T17:43:59.180Z,31.02
2023-03-08T17:46:27.404Z,23.92
2023-03-08T17:48:55.640Z,23.63
2023-03-08T17:51:25.565Z,20.92
2023-03-08T17:53:53.033Z,19.42
2023-03-08T17:56:24.883Z,22.30
2023-03-08T17:58:52.514Z,21.92
2023-03-08T18:01:21.490Z,24.77
2023-03-08T18:03:48.695Z,21.55
2023-03-08T18:06:27.268Z,22.45
2023-03-08T18:08:53.873Z,23.63
2023-03-08T18:11:20.730Z,20.75
2023-03-08T18:13:47.176Z,22.42
2023-03-08T18:16:13.567Z,22.92
2023-03-08T18:18:40.381Z,20.85
2023-03-08T18:21:13.788Z,21.55
2023-03-08T18:23:43.044Z,20.92
2023-03-08T18:26:11.319Z,22.27
2023-03-08T18:28:38.066Z,21.40
2023-03-08T18:31:15.011Z,19.15
2023-03-08T18:33:41.741Z,22.83
2023-03-08T18:36:08.700Z,21.42
2023-03-08T18:38:35.469Z,20.33
2023-03-08T18:41:27.210Z,21.20
2023-03-08T18:43:55.019Z,22.38
2023-03-08T18:46:28.924Z,22.40
2023-03-08T18:49:01.480Z,21.25
2023-03-08T18:51:30.459Z,20.48
2023-03-08T18:53:58.539Z,19.70
2023-03-08T18:56:25.915Z,23.45
2023-03-08T18:58:54.081Z,21.63
2023-03-08T19:01:22.078Z,23.05
2023-03-08T19:03:48.580Z,21.33
2023-03-08T19:06:15.349Z,22.33
2023-03-08T19:08:42.863Z,20.13
2023-03-08T19:11:11.163Z,21.95
2023-03-08T19:13:37.857Z,22.85
2023-03-08T19:16:06.312Z,21.17
2023-03-08T19:18:33.127Z,23.98
2023-03-08T19:20:59.573Z,28.67
2023-03-08T19:23:27.104Z,23.92
2023-03-08T19:26:12.103Z,25.90
2023-03-08T19:28:38.483Z,24.17
2023-03-08T19:31:05.074Z,23.30
2023-03-08T19:33:31.945Z,25.25
2023-03-08T19:35:58.697Z,25.73
2023-03-08T19:38:25.182Z,23.00
2023-03-08T19:40:51.555Z,22.50
2023-03-08T19:43:17.972Z,20.67
2023-03-08T19:45:48.828Z,20.13
2023-03-08T19:48:15.367Z,23.30
2023-03-08T19:50:46.245Z,24.13
2023-03-08T19:53:12.897Z,24.23
2023-03-08T19:55:48.294Z,25.58
2023-03-08T19:58:14.966Z,24.42
2023-03-08T20:00:43.875Z,22.58
2023-03-08T20:03:11.738Z,21.85
2023-03-08T20:05:43.096Z,22.40
2023-03-08T20:08:10.344Z,21.95
2023-03-08T20:10:37.041Z,23.63
2023-03-08T20:13:03.690Z,23.38
2023-03-08T20:15:30.372Z,23.83
2023-03-08T20:17:56.849Z,22.95
2023-03-08T20:20:23.382Z,20.83
2023-03-08T20:22:49.781Z,22.60
2023-03-08T20:25:16.247Z,21.05
2023-03-08T20:27:43.586Z,22.40
2023-03-08T20:30:11.837Z,22.67
2023-03-08T20:32:38.714Z,21.83
2023-03-08T20:35:05.854Z,22.65
2023-03-08T20:37:32.381Z,25.45
2023-03-08T20:39:59.006Z,23.48
2023-03-08T20:42:26.033Z,23.63
2023-03-08T20:44:52.405Z,22.75
2023-03-08T20:47:18.849Z,25.08
2023-03-08T20:49:45.340Z,25.30
2023-03-08T20:52:11.875Z,24.17
2023-03-08T20:54:38.277Z,22.38
2023-03-08T20:57:05.480Z,19.90
2023-03-08T20:59:32.018Z,20.60
2023-03-08T21:01:58.735Z,19.45
2023-03-08T21:04:25.102Z,20.50
2023-03-08T21:06:51.757Z,20.48
2023-03-08T21:09:18.255Z,19.48
2023-03-08T21:11:45.395Z,20.38
2023-03-08T21:14:12.107Z,21.02
2023-03-08T21:16:38.678Z,19.10
2023-03-08T21:19:05.628Z,20.65
2023-03-08T21:21:34.002Z,19.58
2023-03-08T21:24:06.942Z,19.60
2023-03-08T21:26:34.362Z,20.30
2023-03-08T21:29:03.843Z,20.02
2023-03-08T21:31:32.507Z,21.05
2023-03-08T21:34:02.320Z,20.20
2023-03-08T21:36:29.904Z,21.70
2023-03-08T21:38:57.926Z,20.65
2023-03-08T21:41:30.283Z,21.77
2023-03-08T21:43:57.371Z,20.85
2023-03-08T21:46:24.501Z,20.40
2023-03-08T21:48:51.156Z,21.02
2023-03-08T21:51:17.647Z,21.83
2023-03-08T21:53:44.396Z,22.02
2023-03-08T21:56:12.945Z,22.00
2023-03-08T21:58:39.348Z,23.88
2023-03-08T22:01:06.506Z,21.95
2023-03-08T22:03:33.568Z,22.75
2023-03-08T22:06:00.850Z,23.65
2023-03-08T22:08:27.406Z,23.13
2023-03-08T22:10:54.605Z,22.00
2023-03-08T22:13:21.488Z,21.25
2023-03-08T22:15:47.957Z,21.35
2023-03-08T22:18:14.408Z,22.17
2023-03-08T22:20:40.785Z,22.90
2023-03-08T22:23:07.225Z,20.23
2023-03-08T22:25:33.586Z,19.98
2023-03-08T22:28:00.185Z,19.98
2023-03-08T22:30:26.552Z,21.08
2023-03-08T22:32:54.390Z,20.45
2023-03-08T22:35:22.084Z,21.88
2023-03-08T22:37:49.349Z,20.90
2023-03-08T22:40:18.749Z,20.25
2023-03-08T22:42:46.634Z,22.13
2023-03-08T22:45:13.682Z,19.45
2023-03-08T22:47:40.314Z,20.15
2023-03-08T22:50:07.475Z,19.70
2023-03-08T22:52:33.946Z,18.52
2023-03-08T22:55:00.377Z,16.85
2023-03-08T22:57:26.758Z,15.95
2023-03-08T22:59:57.978Z,15.57
2023-03-08T23:02:25.044Z,14.82
2023-03-08T23:04:51.444Z,14.73
2023-03-08T23:07:17.883Z,14.23
2023-03-08T23:09:44.284Z,14.15
2023-03-08T23:12:10.672Z,14.18
2023-03-08T23:14:37.026Z,16.35
2023-03-08T23:17:03.404Z,14.70
2023-03-08T23:19:29.769Z,13.95
2023-03-08T23:21:56.243Z,13.43
2023-03-08T23:24:22.606Z,13.55
2023-03-08T23:26:49.056Z,13.23
2023-03-08T23:29:15.622Z,13.50
2023-03-08T23:31:44.687Z,11.98
2023-03-08T23:34:11.753Z,12.43
2023-03-08T23:36:38.456Z,12.90
2023-03-08T23:39:04.827Z,11.80
2023-03-08T23:41:32.218Z,11.18
2023-03-08T23:44:00.228Z,11.63
2023-03-08T23:46:27.114Z,11.77
2023-03-08T23:48:57.349Z,11.52
2023-03-08T23:51:25.543Z,12.50
2023-03-08T23:53:54.061Z,11.68
2023-03-08T23:56:26.666Z,12.07
2023-03-08T23:58:55.274Z,12.00
